Saturday, December 16, 2017, 7:28 PM MST
Back to Local

KITR, Burlington Carson County

Location: Burlington, CO, United States Lat: 39.25
Local Time: 7:28 PM MST ( 2:28 GMT) Lon: -102.283
Time Zone: US/Mountain Elev: 4215 ft

Show me the last for .
Show Decoded

2017-12-16 18:53 METAR KITR 170153Z AUTO 03012KT 10SM CLR 01/M04 A2985 RMK AO2 SLP128 T00061044 =
2017-12-16 17:53 METAR KITR 170053Z AUTO 04011KT 10SM CLR 02/M06 A2981 RMK AO2 SLP108 T00221056 =
2017-12-16 16:53 METAR KITR 162353Z AUTO 04010KT 8SM CLR 04/M07 A2979 RMK AO2 SLP100 T00391067
                 10128 20039 51016 =
2017-12-16 15:53 METAR KITR 162253Z AUTO 06014G23KT 10SM CLR 08/M07 A2978 RMK AO2 PK WND
                 05026/2202 SLP082 T00831072 =
2017-12-16 14:53 METAR KITR 162153Z AUTO 04018G26KT 10SM CLR 10/M08 A2976 RMK AO2 PK WND
                 05027/2110 SLP073 T01001078 =
2017-12-16 13:53 METAR KITR 162053Z AUTO 04017G24KT 10SM CLR 11/M08 A2974 RMK AO2 SLP063
                 T01111078 55007 =
2017-12-16 12:53 METAR KITR 161953Z AUTO 04017G24KT 10SM CLR 12/M08 A2973 RMK AO2 SLP055
                 T01221078 =
2017-12-16 11:53 METAR KITR 161853Z AUTO 03015G23KT 10SM CLR 12/M08 A2975 RMK AO2 SLP064
                 T01221083 =
2017-12-16 10:53 METAR KITR 161753Z AUTO 05015KT 10SM CLR 12/M10 A2976 RMK AO2 SLP070 T01171100
                 10117 21061 50003 =
2017-12-16 09:53 METAR KITR 161653Z AUTO 03015KT 10SM CLR 11/M12 A2978 RMK AO2 SLP073 T01061122 =
2017-12-16 08:53 METAR KITR 161553Z AUTO 02013KT 10SM CLR 08/M10 A2977 RMK AO2 SLP072 T00831100 =
2017-12-16 07:53 METAR KITR 161453Z AUTO 35008KT 10SM CLR 02/M11 A2975 RMK AO2 SLP076 T00221111
                 52006 =
2017-12-16 06:53 METAR KITR 161353Z AUTO 31006KT 10SM CLR M04/M12 A2974 RMK AO2 SLP082 T10441122
                 =
2017-12-16 05:53 METAR KITR 161253Z AUTO 33005KT 10SM CLR M02/M12 A2974 RMK AO2 SLP076 T10171122
                 =
2017-12-16 04:53 METAR KITR 161153Z AUTO 30011KT 10SM CLR M03/M11 A2973 RMK AO2 SLP077 T10281111
                 10033 21039 56010 =
2017-12-16 03:53 METAR KITR 161053Z AUTO 26009KT 10SM CLR M01/M12 A2974 RMK AO2 SLP065 T10111117
                 =
2017-12-16 02:53 METAR KITR 160953Z AUTO 26010KT 10SM CLR M02/M11 A2976 RMK AO2 SLP067 T10171111
                 =
2017-12-16 01:53 METAR KITR 160853Z AUTO 23008KT 10SM CLR M01/M11 A2976 RMK AO2 SLP067 T10061111
                 56011 =
2017-12-16 00:53 METAR KITR 160753Z AUTO 25008KT 10SM CLR 02/M11 A2977 RMK AO2 SLP067 T00221111 =
2017-12-15 23:53 METAR KITR 160653Z AUTO 22009KT 10SM CLR 01/M11 A2979 RMK AO2 SLP076 T00111106
                 401501100 =
2017-12-15 22:53 METAR KITR 160553Z AUTO 22009KT 10SM CLR 01/M11 A2980 RMK AO2 SLP084 T00061106
                 10067 20006 56015 =
2017-12-15 21:53 METAR KITR 160453Z AUTO 23009KT 10SM CLR 03/M10 A2982 RMK AO2 SLP093 T00281100 =
2017-12-15 20:53 METAR KITR 160353Z AUTO 23010KT 10SM CLR 03/M09 A2983 RMK AO2 SLP108 T00331094 =
2017-12-15 19:53 METAR KITR 160253Z AUTO 23009KT 10SM CLR 04/M09 A2985 RMK AO2 SLP123 T00391089
                 56012 =

Support USWX by starting your Amazon purchase here.